sensor_id;sensor_type;location;lat;lon;timestamp;temperature;humidity
67557;DHT22;54387;53.526;49.300;2023-08-30T00:01:37;12.30;62.00
67557;DHT22;54387;53.526;49.300;2023-08-30T00:04:03;12.30;62.00
67557;DHT22;54387;53.526;49.300;2023-08-30T00:06:29;12.30;62.10
67557;DHT22;54387;53.526;49.300;2023-08-30T00:08:55;12.40;62.10
67557;DHT22;54387;53.526;49.300;2023-08-30T00:11:22;12.30;62.10
67557;DHT22;54387;53.526;49.300;2023-08-30T00:13:48;12.30;62.20
67557;DHT22;54387;53.526;49.300;2023-08-30T00:16:15;12.30;62.40
67557;DHT22;54387;53.526;49.300;2023-08-30T00:18:42;12.30;62.40
67557;DHT22;54387;53.526;49.300;2023-08-30T00:21:10;12.30;62.40
67557;DHT22;54387;53.526;49.300;2023-08-30T00:23:36;12.30;62.30
67557;DHT22;54387;53.526;49.300;2023-08-30T00:26:02;12.30;62.50
67557;DHT22;54387;53.526;49.300;2023-08-30T00:28:29;12.30;62.30
67557;DHT22;54387;53.526;49.300;2023-08-30T00:30:55;12.20;62.40
67557;DHT22;54387;53.526;49.300;2023-08-30T00:33:21;12.30;62.40
67557;DHT22;54387;53.526;49.300;2023-08-30T00:35:54;12.20;62.40
67557;DHT22;54387;53.526;49.300;2023-08-30T00:38:21;12.20;62.40
67557;DHT22;54387;53.526;49.300;2023-08-30T00:40:47;12.20;62.70
67557;DHT22;54387;53.526;49.300;2023-08-30T00:43:13;12.20;62.50
67557;DHT22;54387;53.526;49.300;2023-08-30T00:45:39;12.10;62.40
67557;DHT22;54387;53.526;49.300;2023-08-30T00:48:06;12.10;62.60
67557;DHT22;54387;53.526;49.300;2023-08-30T00:50:32;12.10;62.60
67557;DHT22;54387;53.526;49.300;2023-08-30T00:52:59;12.10;62.70
67557;DHT22;54387;53.526;49.300;2023-08-30T00:55:41;12.10;62.70
67557;DHT22;54387;53.526;49.300;2023-08-30T00:58:08;12.10;62.80
67557;DHT22;54387;53.526;49.300;2023-08-30T01:00:35;12.10;62.70
67557;DHT22;54387;53.526;49.300;2023-08-30T01:03:02;12.10;62.70
67557;DHT22;54387;53.526;49.300;2023-08-30T01:05:28;12.10;62.80
67557;DHT22;54387;53.526;49.300;2023-08-30T01:07:55;12.10;62.80
67557;DHT22;54387;53.526;49.300;2023-08-30T01:10:22;12.10;63.00
67557;DHT22;54387;53.526;49.300;2023-08-30T01:12:51;12.10;63.10
67557;DHT22;54387;53.526;49.300;2023-08-30T01:15:19;12.10;63.10
67557;DHT22;54387;53.526;49.300;2023-08-30T01:17:52;12.20;63.20
67557;DHT22;54387;53.526;49.300;2023-08-30T01:20:20;12.20;63.40
67557;DHT22;54387;53.526;49.300;2023-08-30T01:28:11;12.20;63.80
67557;DHT22;54387;53.526;49.300;2023-08-30T01:30:39;12.20;63.90
67557;DHT22;54387;53.526;49.300;2023-08-30T01:33:07;12.30;64.00
67557;DHT22;54387;53.526;49.300;2023-08-30T01:35:34;12.30;64.00
67557;DHT22;54387;53.526;49.300;2023-08-30T01:38:03;12.30;64.00
67557;DHT22;54387;53.526;49.300;2023-08-30T01:40:30;12.30;64.10
67557;DHT22;54387;53.526;49.300;2023-08-30T01:42:58;12.30;64.00
67557;DHT22;54387;53.526;49.300;2023-08-30T01:45:24;12.30;64.00
67557;DHT22;54387;53.526;49.300;2023-08-30T01:47:51;12.30;63.90
67557;DHT22;54387;53.526;49.300;2023-08-30T01:50:18;12.30;64.00
67557;DHT22;54387;53.526;49.300;2023-08-30T01:52:45;12.30;63.90
67557;DHT22;54387;53.526;49.300;2023-08-30T01:55:12;12.30;63.80
67557;DHT22;54387;53.526;49.300;2023-08-30T01:57:39;12.30;63.90
67557;DHT22;54387;53.526;49.300;2023-08-30T02:00:06;12.30;63.90
67557;DHT22;54387;53.526;49.300;2023-08-30T02:02:33;12.30;64.00
67557;DHT22;54387;53.526;49.300;2023-08-30T02:04:59;12.30;64.20
67557;DHT22;54387;53.526;49.300;2023-08-30T02:07:31;12.40;64.10
67557;DHT22;54387;53.526;49.300;2023-08-30T02:10:00;12.30;64.10
67557;DHT22;54387;53.526;49.300;2023-08-30T02:13:10;12.40;64.20
67557;DHT22;54387;53.526;49.300;2023-08-30T02:15:17;12.40;64.10
67557;DHT22;54387;53.526;49.300;2023-08-30T02:17:44;12.40;64.10
67557;DHT22;54387;53.526;49.300;2023-08-30T02:20:10;12.40;64.00
67557;DHT22;54387;53.526;49.300;2023-08-30T02:22:38;12.40;63.90
67557;DHT22;54387;53.526;49.300;2023-08-30T02:25:04;12.40;63.90
67557;DHT22;54387;53.526;49.300;2023-08-30T02:27:31;12.40;63.90
67557;DHT22;54387;53.526;49.300;2023-08-30T02:29:58;12.40;63.90
67557;DHT22;54387;53.526;49.300;2023-08-30T02:32:24;12.40;63.80
67557;DHT22;54387;53.526;49.300;2023-08-30T02:34:51;12.50;63.70
67557;DHT22;54387;53.526;49.300;2023-08-30T02:37:17;12.50;63.70
67557;DHT22;54387;53.526;49.300;2023-08-30T02:39:43;12.50;63.70
67557;DHT22;54387;53.526;49.300;2023-08-30T02:42:09;12.50;63.70
67557;DHT22;54387;53.526;49.300;2023-08-30T02:44:36;12.50;63.70
67557;DHT22;54387;53.526;49.300;2023-08-30T02:47:02;12.50;63.60
67557;DHT22;54387;53.526;49.300;2023-08-30T02:49:28;12.50;63.60
67557;DHT22;54387;53.526;49.300;2023-08-30T02:51:54;12.60;63.60
67557;DHT22;54387;53.526;49.300;2023-08-30T02:54:20;12.60;63.50
67557;DHT22;54387;53.526;49.300;2023-08-30T02:56:48;12.60;63.50
67557;DHT22;54387;53.526;49.300;2023-08-30T02:59:14;12.60;63.50
67557;DHT22;54387;53.526;49.300;2023-08-30T03:01:41;12.60;63.40
67557;DHT22;54387;53.526;49.300;2023-08-30T03:04:07;12.60;63.40
67557;DHT22;54387;53.526;49.300;2023-08-30T03:06:34;12.70;63.60
67557;DHT22;54387;53.526;49.300;2023-08-30T03:09:00;12.70;63.60
67557;DHT22;54387;53.526;49.300;2023-08-30T03:11:27;12.70;63.50
67557;DHT22;54387;53.526;49.300;2023-08-30T03:13:53;12.80;63.60
67557;DHT22;54387;53.526;49.300;2023-08-30T03:16:23;12.90;63.50
67557;DHT22;54387;53.526;49.300;2023-08-30T03:18:50;13.00;63.50
67557;DHT22;54387;53.526;49.300;2023-08-30T03:21:16;13.00;63.40
67557;DHT22;54387;53.526;49.300;2023-08-30T03:23:42;13.10;63.40
67557;DHT22;54387;53.526;49.300;2023-08-30T03:26:09;13.20;63.40
67557;DHT22;54387;53.526;49.300;2023-08-30T03:28:36;13.30;63.40
67557;DHT22;54387;53.526;49.300;2023-08-30T03:31:02;13.40;63.50
67557;DHT22;54387;53.526;49.300;2023-08-30T03:33:36;13.50;63.60
67557;DHT22;54387;53.526;49.300;2023-08-30T03:36:02;13.50;63.70
67557;DHT22;54387;53.526;49.300;2023-08-30T03:38:28;13.60;63.70
67557;DHT22;54387;53.526;49.300;2023-08-30T03:40:55;13.70;63.70
67557;DHT22;54387;53.526;49.300;2023-08-30T03:43:21;13.80;63.70
67557;DHT22;54387;53.526;49.300;2023-08-30T03:45:47;13.80;63.70
67557;DHT22;54387;53.526;49.300;2023-08-30T03:48:13;13.80;63.70
67557;DHT22;54387;53.526;49.300;2023-08-30T03:50:39;13.90;63.70
67557;DHT22;54387;53.526;49.300;2023-08-30T03:53:06;14.00;63.70
67557;DHT22;54387;53.526;49.300;2023-08-30T03:55:32;14.10;63.70
67557;DHT22;54387;53.526;49.300;2023-08-30T03:57:59;14.20;63.60
67557;DHT22;54387;53.526;49.300;2023-08-30T04:00:26;14.20;63.40
67557;DHT22;54387;53.526;49.300;2023-08-30T04:02:52;14.30;63.40
67557;DHT22;54387;53.526;49.300;2023-08-30T04:05:18;14.40;63.30
67557;DHT22;54387;53.526;49.300;2023-08-30T04:07:44;14.50;63.10
67557;DHT22;54387;53.526;49.300;2023-08-30T04:10:11;14.60;62.90
67557;DHT22;54387;53.526;49.300;2023-08-30T04:12:37;14.70;62.70
67557;DHT22;54387;53.526;49.300;2023-08-30T04:15:03;14.80;62.40
67557;DHT22;54387;53.526;49.300;2023-08-30T04:17:29;14.90;62.20
67557;DHT22;54387;53.526;49.300;2023-08-30T04:19:56;15.00;62.00
67557;DHT22;54387;53.526;49.300;2023-08-30T04:22:22;15.10;61.80
67557;DHT22;54387;53.526;49.300;2023-08-30T04:24:48;15.10;61.60
67557;DHT22;54387;53.526;49.300;2023-08-30T04:27:15;15.20;61.40
67557;DHT22;54387;53.526;49.300;2023-08-30T04:29:42;15.30;61.00
67557;DHT22;54387;53.526;49.300;2023-08-30T04:32:11;15.40;60.80
67557;DHT22;54387;53.526;49.300;2023-08-30T04:34:37;15.50;60.60
67557;DHT22;54387;53.526;49.300;2023-08-30T04:37:03;15.60;60.50
67557;DHT22;54387;53.526;49.300;2023-08-30T04:39:30;15.80;60.40
67557;DHT22;54387;53.526;49.300;2023-08-30T04:41:56;16.00;60.20
67557;DHT22;54387;53.526;49.300;2023-08-30T04:44:22;16.10;59.90
67557;DHT22;54387;53.526;49.300;2023-08-30T04:46:51;16.30;59.30
67557;DHT22;54387;53.526;49.300;2023-08-30T04:49:18;16.50;58.90
67557;DHT22;54387;53.526;49.300;2023-08-30T04:51:44;16.70;58.00
67557;DHT22;54387;53.526;49.300;2023-08-30T04:54:11;16.80;57.10
67557;DHT22;54387;53.526;49.300;2023-08-30T04:56:37;17.00;56.80
67557;DHT22;54387;53.526;49.300;2023-08-30T04:59:03;17.20;56.70
67557;DHT22;54387;53.526;49.300;2023-08-30T05:01:30;17.30;56.00
67557;DHT22;54387;53.526;49.300;2023-08-30T05:03:56;17.40;55.30
67557;DHT22;54387;53.526;49.300;2023-08-30T05:06:22;17.50;54.60
67557;DHT22;54387;53.526;49.300;2023-08-30T05:08:48;17.50;54.30
67557;DHT22;54387;53.526;49.300;2023-08-30T05:11:15;17.50;53.70
67557;DHT22;54387;53.526;49.300;2023-08-30T05:13:41;17.50;53.50
67557;DHT22;54387;53.526;49.300;2023-08-30T05:16:08;17.60;53.40
67557;DHT22;54387;53.526;49.300;2023-08-30T05:18:34;17.60;53.30
67557;DHT22;54387;53.526;49.300;2023-08-30T05:21:00;17.60;53.30
67557;DHT22;54387;53.526;49.300;2023-08-30T05:23:29;17.70;53.70
67557;DHT22;54387;53.526;49.300;2023-08-30T05:25:55;17.80;53.50
67557;DHT22;54387;53.526;49.300;2023-08-30T05:28:21;17.90;53.00
67557;DHT22;54387;53.526;49.300;2023-08-30T05:30:48;18.00;52.70
67557;DHT22;54387;53.526;49.300;2023-08-30T05:33:14;17.90;52.60
67557;DHT22;54387;53.526;49.300;2023-08-30T05:35:41;17.80;52.80
67557;DHT22;54387;53.526;49.300;2023-08-30T05:38:07;17.60;53.20
67557;DHT22;54387;53.526;49.300;2023-08-30T05:40:33;17.50;53.60
67557;DHT22;54387;53.526;49.300;2023-08-30T05:42:59;17.40;53.80
67557;DHT22;54387;53.526;49.300;2023-08-30T05:45:26;17.40;53.80
67557;DHT22;54387;53.526;49.300;2023-08-30T05:47:52;17.40;54.50
67557;DHT22;54387;53.526;49.300;2023-08-30T05:50:18;17.40;53.40
67557;DHT22;54387;53.526;49.300;2023-08-30T05:52:45;17.50;53.20
67557;DHT22;54387;53.526;49.300;2023-08-30T05:55:11;17.60;52.70
67557;DHT22;54387;53.526;49.300;2023-08-30T05:57:37;17.60;52.60
67557;DHT22;54387;53.526;49.300;2023-08-30T06:00:04;17.60;52.60
67557;DHT22;54387;53.526;49.300;2023-08-30T06:02:31;17.60;51.90
67557;DHT22;54387;53.526;49.300;2023-08-30T06:04:57;17.50;51.30
67557;DHT22;54387;53.526;49.300;2023-08-30T06:07:23;17.50;51.20
67557;DHT22;54387;53.526;49.300;2023-08-30T06:09:49;17.40;50.90
67557;DHT22;54387;53.526;49.300;2023-08-30T06:12:16;17.40;50.60
67557;DHT22;54387;53.526;49.300;2023-08-30T06:14:43;17.40;50.40
67557;DHT22;54387;53.526;49.300;2023-08-30T06:17:09;17.40;50.30
67557;DHT22;54387;53.526;49.300;2023-08-30T06:19:35;17.40;50.30
67557;DHT22;54387;53.526;49.300;2023-08-30T06:22:02;17.40;49.80
67557;DHT22;54387;53.526;49.300;2023-08-30T06:24:28;17.40;49.40
67557;DHT22;54387;53.526;49.300;2023-08-30T06:26:54;17.50;49.30
67557;DHT22;54387;53.526;49.300;2023-08-30T06:29:20;17.60;48.70
67557;DHT22;54387;53.526;49.300;2023-08-30T06:31:47;17.60;48.40
67557;DHT22;54387;53.526;49.300;2023-08-30T06:34:13;17.80;48.10
67557;DHT22;54387;53.526;49.300;2023-08-30T06:36:40;17.90;48.30
67557;DHT22;54387;53.526;49.300;2023-08-30T06:39:06;18.00;48.30
67557;DHT22;54387;53.526;49.300;2023-08-30T06:41:33;18.10;48.40
67557;DHT22;54387;53.526;49.300;2023-08-30T06:43:59;18.30;48.30
67557;DHT22;54387;53.526;49.300;2023-08-30T06:46:25;18.40;47.80
67557;DHT22;54387;53.526;49.300;2023-08-30T06:48:51;18.50;46.30
67557;DHT22;54387;53.526;49.300;2023-08-30T06:51:18;18.50;46.10
67557;DHT22;54387;53.526;49.300;2023-08-30T06:53:44;18.40;45.90
67557;DHT22;54387;53.526;49.300;2023-08-30T06:56:12;18.40;47.20
67557;DHT22;54387;53.526;49.300;2023-08-30T06:58:39;18.40;46.80
67557;DHT22;54387;53.526;49.300;2023-08-30T07:01:05;18.50;46.40
67557;DHT22;54387;53.526;49.300;2023-08-30T07:03:31;18.60;45.60
67557;DHT22;54387;53.526;49.300;2023-08-30T07:05:58;18.70;45.40
67557;DHT22;54387;53.526;49.300;2023-08-30T07:08:24;18.70;45.20
67557;DHT22;54387;53.526;49.300;2023-08-30T07:10:51;18.60;45.00
67557;DHT22;54387;53.526;49.300;2023-08-30T07:13:17;18.60;45.40
67557;DHT22;54387;53.526;49.300;2023-08-30T07:15:43;18.50;45.50
67557;DHT22;54387;53.526;49.300;2023-08-30T07:18:10;18.50;45.00
67557;DHT22;54387;53.526;49.300;2023-08-30T07:20:38;18.50;44.90
67557;DHT22;54387;53.526;49.300;2023-08-30T07:23:04;18.50;44.70
67557;DHT22;54387;53.526;49.300;2023-08-30T07:25:30;18.60;44.40
67557;DHT22;54387;53.526;49.300;2023-08-30T07:27:59;18.60;44.00
67557;DHT22;54387;53.526;49.300;2023-08-30T07:30:25;18.60;43.80
67557;DHT22;54387;53.526;49.300;2023-08-30T07:32:52;18.60;43.70
67557;DHT22;54387;53.526;49.300;2023-08-30T07:35:18;18.60;43.40
67557;DHT22;54387;53.526;49.300;2023-08-30T07:37:44;18.60;43.60
67557;DHT22;54387;53.526;49.300;2023-08-30T07:40:11;18.60;43.80
67557;DHT22;54387;53.526;49.300;2023-08-30T07:42:38;18.60;44.00
67557;DHT22;54387;53.526;49.300;2023-08-30T07:45:05;18.80;43.70
67557;DHT22;54387;53.526;49.300;2023-08-30T07:47:32;18.90;43.50
67557;DHT22;54387;53.526;49.300;2023-08-30T07:49:58;19.00;43.00
67557;DHT22;54387;53.526;49.300;2023-08-30T07:52:24;19.00;42.70
67557;DHT22;54387;53.526;49.300;2023-08-30T07:54:50;19.10;42.60
67557;DHT22;54387;53.526;49.300;2023-08-30T07:57:17;19.30;42.50
67557;DHT22;54387;53.526;49.300;2023-08-30T07:59:43;19.50;42.50
67557;DHT22;54387;53.526;49.300;2023-08-30T08:02:09;19.70;41.70
67557;DHT22;54387;53.526;49.300;2023-08-30T08:04:36;19.80;41.10
67557;DHT22;54387;53.526;49.300;2023-08-30T08:07:03;19.70;41.10
67557;DHT22;54387;53.526;49.300;2023-08-30T08:09:31;19.70;41.60
67557;DHT22;54387;53.526;49.300;2023-08-30T08:11:57;19.90;41.40
67557;DHT22;54387;53.526;49.300;2023-08-30T08:14:25;19.90;41.00
67557;DHT22;54387;53.526;49.300;2023-08-30T08:16:52;19.80;40.10
67557;DHT22;54387;53.526;49.300;2023-08-30T08:19:18;19.70;40.30
67557;DHT22;54387;53.526;49.300;2023-08-30T08:21:47;19.70;40.70
67557;DHT22;54387;53.526;49.300;2023-08-30T08:24:17;19.70;40.70
67557;DHT22;54387;53.526;49.300;2023-08-30T08:26:49;19.90;40.30
67557;DHT22;54387;53.526;49.300;2023-08-30T08:29:23;20.00;39.80
67557;DHT22;54387;53.526;49.300;2023-08-30T08:31:59;20.00;39.30
67557;DHT22;54387;53.526;49.300;2023-08-30T08:34:32;20.00;39.50
67557;DHT22;54387;53.526;49.300;2023-08-30T08:36:58;20.10;39.00
67557;DHT22;54387;53.526;49.300;2023-08-30T08:39:24;20.10;38.90
67557;DHT22;54387;53.526;49.300;2023-08-30T08:41:51;20.20;38.70
67557;DHT22;54387;53.526;49.300;2023-08-30T08:44:19;20.20;39.00
67557;DHT22;54387;53.526;49.300;2023-08-30T08:46:47;20.30;38.90
67557;DHT22;54387;53.526;49.300;2023-08-30T08:49:14;20.60;38.60
67557;DHT22;54387;53.526;49.300;2023-08-30T08:51:40;20.80;37.60
67557;DHT22;54387;53.526;49.300;2023-08-30T08:54:08;20.90;37.10
67557;DHT22;54387;53.526;49.300;2023-08-30T08:56:35;21.00;36.90
67557;DHT22;54387;53.526;49.300;2023-08-30T08:59:02;20.90;36.80
67557;DHT22;54387;53.526;49.300;2023-08-30T09:01:28;20.90;36.60
67557;DHT22;54387;53.526;49.300;2023-08-30T09:03:54;20.70;35.80
67557;DHT22;54387;53.526;49.300;2023-08-30T09:06:21;20.60;35.80
67557;DHT22;54387;53.526;49.300;2023-08-30T09:08:47;20.50;36.20
67557;DHT22;54387;53.526;49.300;2023-08-30T09:11:13;20.50;35.80
67557;DHT22;54387;53.526;49.300;2023-08-30T09:13:44;20.50;34.90
67557;DHT22;54387;53.526;49.300;2023-08-30T09:16:16;20.40;34.70
67557;DHT22;54387;53.526;49.300;2023-08-30T09:18:42;20.50;34.80
67557;DHT22;54387;53.526;49.300;2023-08-30T09:21:08;20.80;35.00
67557;DHT22;54387;53.526;49.300;2023-08-30T09:23:35;21.10;34.20
67557;DHT22;54387;53.526;49.300;2023-08-30T09:26:01;21.30;34.40
67557;DHT22;54387;53.526;49.300;2023-08-30T09:28:28;21.80;33.90
67557;DHT22;54387;53.526;49.300;2023-08-30T09:30:54;22.60;32.90
67557;DHT22;54387;53.526;49.300;2023-08-30T09:33:23;23.20;31.70
67557;DHT22;54387;53.526;49.300;2023-08-30T09:35:49;24.70;29.60
67557;DHT22;54387;53.526;49.300;2023-08-30T09:38:16;26.40;28.20
67557;DHT22;54387;53.526;49.300;2023-08-30T09:40:42;28.10;26.70
67557;DHT22;54387;53.526;49.300;2023-08-30T09:43:08;29.60;25.50
67557;DHT22;54387;53.526;49.300;2023-08-30T09:45:34;30.80;24.90
67557;DHT22;54387;53.526;49.300;2023-08-30T09:48:01;31.70;23.80
67557;DHT22;54387;53.526;49.300;2023-08-30T09:50:27;32.40;23.10
67557;DHT22;54387;53.526;49.300;2023-08-30T09:52:55;32.50;22.60
67557;DHT22;54387;53.526;49.300;2023-08-30T09:55:22;33.00;22.40
67557;DHT22;54387;53.526;49.300;2023-08-30T09:57:48;34.20;22.20
67557;DHT22;54387;53.526;49.300;2023-08-30T10:00:14;35.50;21.80
67557;DHT22;54387;53.526;49.300;2023-08-30T10:02:41;36.80;20.80
67557;DHT22;54387;53.526;49.300;2023-08-30T10:05:09;37.70;20.10
67557;DHT22;54387;53.526;49.300;2023-08-30T10:07:36;38.10;19.60
67557;DHT22;54387;53.526;49.300;2023-08-30T10:10:03;38.30;19.00
67557;DHT22;54387;53.526;49.300;2023-08-30T10:12:33;38.40;19.40
67557;DHT22;54387;53.526;49.300;2023-08-30T10:15:00;39.00;19.00
67557;DHT22;54387;53.526;49.300;2023-08-30T10:17:27;39.50;19.20
67557;DHT22;54387;53.526;49.300;2023-08-30T10:19:55;40.40;18.90
67557;DHT22;54387;53.526;49.300;2023-08-30T10:22:22;39.90;18.20
67557;DHT22;54387;53.526;49.300;2023-08-30T10:24:51;38.50;18.90
67557;DHT22;54387;53.526;49.300;2023-08-30T10:27:18;37.40;19.30
67557;DHT22;54387;53.526;49.300;2023-08-30T10:29:45;36.00;19.40
67557;DHT22;54387;53.526;49.300;2023-08-30T10:32:18;34.80;19.80
67557;DHT22;54387;53.526;49.300;2023-08-30T10:34:47;34.00;20.20
67557;DHT22;54387;53.526;49.300;2023-08-30T10:37:13;34.40;20.30
67557;DHT22;54387;53.526;49.300;2023-08-30T10:39:41;35.70;19.80
67557;DHT22;54387;53.526;49.300;2023-08-30T10:44:33;37.00;19.20
67557;DHT22;54387;53.526;49.300;2023-08-30T10:47:01;37.60;18.90
67557;DHT22;54387;53.526;49.300;2023-08-30T10:49:28;38.10;18.80
67557;DHT22;54387;53.526;49.300;2023-08-30T10:51:54;38.00;18.30
67557;DHT22;54387;53.526;49.300;2023-08-30T10:54:22;36.00;18.50
67557;DHT22;54387;53.526;49.300;2023-08-30T10:56:56;34.10;19.50
67557;DHT22;54387;53.526;49.300;2023-08-30T10:59:24;32.60;20.00
67557;DHT22;54387;53.526;49.300;2023-08-30T11:01:51;31.00;20.90
67557;DHT22;54387;53.526;49.300;2023-08-30T11:04:18;30.90;22.30
67557;DHT22;54387;53.526;49.300;2023-08-30T11:06:45;32.30;21.40
67557;DHT22;54387;53.526;49.300;2023-08-30T11:09:16;34.20;20.60
67557;DHT22;54387;53.526;49.300;2023-08-30T11:11:45;34.10;20.10
67557;DHT22;54387;53.526;49.300;2023-08-30T11:14:12;32.60;20.50
67557;DHT22;54387;53.526;49.300;2023-08-30T11:16:39;31.30;21.20
67557;DHT22;54387;53.526;49.300;2023-08-30T11:19:05;30.40;21.70
67557;DHT22;54387;53.526;49.300;2023-08-30T11:21:33;29.50;22.20
67557;DHT22;54387;53.526;49.300;2023-08-30T11:24:00;28.60;22.60
67557;DHT22;54387;53.526;49.300;2023-08-30T11:26:26;28.00;23.90
67557;DHT22;54387;53.526;49.300;2023-08-30T11:28:52;27.40;23.60
67557;DHT22;54387;53.526;49.300;2023-08-30T11:31:23;26.90;23.80
67557;DHT22;54387;53.526;49.300;2023-08-30T11:33:53;26.60;24.20
67557;DHT22;54387;53.526;49.300;2023-08-30T11:36:22;26.20;24.40
67557;DHT22;54387;53.526;49.300;2023-08-30T11:38:55;26.00;24.60
67557;DHT22;54387;53.526;49.300;2023-08-30T11:41:21;25.70;24.80
67557;DHT22;54387;53.526;49.300;2023-08-30T11:43:48;25.30;25.00
67557;DHT22;54387;53.526;49.300;2023-08-30T11:46:14;25.10;25.40
67557;DHT22;54387;53.526;49.300;2023-08-30T11:48:41;24.90;25.90
67557;DHT22;54387;53.526;49.300;2023-08-30T11:51:07;24.60;25.90
67557;DHT22;54387;53.526;49.300;2023-08-30T11:53:34;24.50;26.40
67557;DHT22;54387;53.526;49.300;2023-08-30T11:56:01;24.50;26.40
67557;DHT22;54387;53.526;49.300;2023-08-30T11:58:27;24.60;26.40
67557;DHT22;54387;53.526;49.300;2023-08-30T12:00:53;24.80;26.30
67557;DHT22;54387;53.526;49.300;2023-08-30T12:03:20;25.20;26.30
67557;DHT22;54387;53.526;49.300;2023-08-30T12:05:47;25.30;26.10
67557;DHT22;54387;53.526;49.300;2023-08-30T12:10:52;24.90;26.50
67557;DHT22;54387;53.526;49.300;2023-08-30T12:13:25;24.60;26.70
67557;DHT22;54387;53.526;49.300;2023-08-30T12:15:55;24.20;26.70
67557;DHT22;54387;53.526;49.300;2023-08-30T12:18:21;24.00;27.10
67557;DHT22;54387;53.526;49.300;2023-08-30T12:20:56;23.90;27.00
67557;DHT22;54387;53.526;49.300;2023-08-30T12:23:26;23.80;27.10
67557;DHT22;54387;53.526;49.300;2023-08-30T12:25:56;23.70;27.30
67557;DHT22;54387;53.526;49.300;2023-08-30T12:28:23;23.80;27.40
67557;DHT22;54387;53.526;49.300;2023-08-30T12:30:49;24.10;27.30
67557;DHT22;54387;53.526;49.300;2023-08-30T12:33:18;24.20;27.20
67557;DHT22;54387;53.526;49.300;2023-08-30T12:35:45;24.30;27.30
67557;DHT22;54387;53.526;49.300;2023-08-30T12:38:11;24.40;27.40
67557;DHT22;54387;53.526;49.300;2023-08-30T12:40:47;24.70;27.50
67557;DHT22;54387;53.526;49.300;2023-08-30T12:43:14;25.10;27.20
67557;DHT22;54387;53.526;49.300;2023-08-30T12:45:40;25.20;26.90
67557;DHT22;54387;53.526;49.300;2023-08-30T12:48:07;25.00;26.90
67557;DHT22;54387;53.526;49.300;2023-08-30T12:50:37;24.70;27.00
67557;DHT22;54387;53.526;49.300;2023-08-30T12:53:07;24.30;27.20
67557;DHT22;54387;53.526;49.300;2023-08-30T12:55:33;24.10;27.50
67557;DHT22;54387;53.526;49.300;2023-08-30T12:58:06;23.90;27.70
67557;DHT22;54387;53.526;49.300;2023-08-30T13:00:33;23.90;27.60
67557;DHT22;54387;53.526;49.300;2023-08-30T13:02:59;24.20;27.80
67557;DHT22;54387;53.526;49.300;2023-08-30T13:05:26;24.90;27.40
67557;DHT22;54387;53.526;49.300;2023-08-30T13:07:52;25.60;26.70
67557;DHT22;54387;53.526;49.300;2023-08-30T13:10:19;25.80;26.40
67557;DHT22;54387;53.526;49.300;2023-08-30T13:12:45;25.70;26.40
67557;DHT22;54387;53.526;49.300;2023-08-30T13:15:11;25.20;26.40
67557;DHT22;54387;53.526;49.300;2023-08-30T13:17:37;24.70;26.80
67557;DHT22;54387;53.526;49.300;2023-08-30T13:20:04;24.20;27.30
67557;DHT22;54387;53.526;49.300;2023-08-30T13:22:30;24.10;27.60
67557;DHT22;54387;53.526;49.300;2023-08-30T13:24:56;24.30;27.60
67557;DHT22;54387;53.526;49.300;2023-08-30T13:27:22;24.20;27.50
67557;DHT22;54387;53.526;49.300;2023-08-30T13:29:48;23.80;27.70
67557;DHT22;54387;53.526;49.300;2023-08-30T13:32:14;23.50;28.00
67557;DHT22;54387;53.526;49.300;2023-08-30T13:34:40;23.20;28.40
67557;DHT22;54387;53.526;49.300;2023-08-30T13:37:09;22.90;28.70
67557;DHT22;54387;53.526;49.300;2023-08-30T13:39:35;22.70;28.90
67557;DHT22;54387;53.526;49.300;2023-08-30T13:42:01;22.70;29.20
67557;DHT22;54387;53.526;49.300;2023-08-30T13:44:27;22.60;29.30
67557;DHT22;54387;53.526;49.300;2023-08-30T13:46:53;22.50;29.60
67557;DHT22;54387;53.526;49.300;2023-08-30T13:49:19;22.30;29.70
67557;DHT22;54387;53.526;49.300;2023-08-30T13:51:46;22.10;30.00
67557;DHT22;54387;53.526;49.300;2023-08-30T13:54:12;22.10;30.00
67557;DHT22;54387;53.526;49.300;2023-08-30T13:56:38;22.20;30.10
67557;DHT22;54387;53.526;49.300;2023-08-30T13:59:04;22.20;30.20
67557;DHT22;54387;53.526;49.300;2023-08-30T14:01:32;22.20;30.30
67557;DHT22;54387;53.526;49.300;2023-08-30T14:03:58;22.20;30.40
67557;DHT22;54387;53.526;49.300;2023-08-30T14:06:26;22.20;30.40
67557;DHT22;54387;53.526;49.300;2023-08-30T14:08:52;22.20;30.20
67557;DHT22;54387;53.526;49.300;2023-08-30T14:11:19;22.10;30.30
67557;DHT22;54387;53.526;49.300;2023-08-30T14:13:45;22.10;30.40
67557;DHT22;54387;53.526;49.300;2023-08-30T14:16:11;22.10;30.50
67557;DHT22;54387;53.526;49.300;2023-08-30T14:18:37;22.10;30.70
67557;DHT22;54387;53.526;49.300;2023-08-30T14:21:04;22.10;30.80
67557;DHT22;54387;53.526;49.300;2023-08-30T14:23:30;22.20;30.70
67557;DHT22;54387;53.526;49.300;2023-08-30T14:25:57;22.30;30.70
67557;DHT22;54387;53.526;49.300;2023-08-30T14:28:23;22.30;30.60
67557;DHT22;54387;53.526;49.300;2023-08-30T14:30:49;22.40;30.60
67557;DHT22;54387;53.526;49.300;2023-08-30T14:33:15;22.40;30.60
67557;DHT22;54387;53.526;49.300;2023-08-30T14:35:42;22.40;30.50
67557;DHT22;54387;53.526;49.300;2023-08-30T14:38:08;22.30;30.50
67557;DHT22;54387;53.526;49.300;2023-08-30T14:40:34;22.20;30.70
67557;DHT22;54387;53.526;49.300;2023-08-30T14:43:00;22.10;30.90
67557;DHT22;54387;53.526;49.300;2023-08-30T14:45:25;21.90;30.90
67557;DHT22;54387;53.526;49.300;2023-08-30T14:47:51;21.80;31.20
67557;DHT22;54387;53.526;49.300;2023-08-30T14:50:17;21.60;31.50
67557;DHT22;54387;53.526;49.300;2023-08-30T14:52:43;21.50;31.70
67557;DHT22;54387;53.526;49.300;2023-08-30T14:55:09;21.30;32.00
67557;DHT22;54387;53.526;49.300;2023-08-30T14:57:35;21.10;32.20
67557;DHT22;54387;53.526;49.300;2023-08-30T15:00:01;21.00;32.50
67557;DHT22;54387;53.526;49.300;2023-08-30T15:02:27;20.90;32.80
67557;DHT22;54387;53.526;49.300;2023-08-30T15:04:53;20.80;33.00
67557;DHT22;54387;53.526;49.300;2023-08-30T15:07:19;20.70;32.90
67557;DHT22;54387;53.526;49.300;2023-08-30T15:09:45;20.60;33.20
67557;DHT22;54387;53.526;49.300;2023-08-30T15:12:12;20.50;33.30
67557;DHT22;54387;53.526;49.300;2023-08-30T15:14:38;20.40;33.50
67557;DHT22;54387;53.526;49.300;2023-08-30T15:17:06;20.20;33.60
67557;DHT22;54387;53.526;49.300;2023-08-30T15:19:32;20.10;33.80
67557;DHT22;54387;53.526;49.300;2023-08-30T15:21:58;20.00;34.10
67557;DHT22;54387;53.526;49.300;2023-08-30T15:24:24;19.90;34.40